Time;durP1;ratioP1;P1;durP2;ratioP2;P2;SDS_P1;SDS_P2;PMS_P1;PMS_P2;Temp;Humidity;BMP_temperature;BMP_pressure;BME280_temperature;BME280_humidity;BME280_pressure;Samples;Min_cycle;Max_cycle;Signal;HPM_P1;HPM_P2
2021/07/06 00:01:16;;;;;;;0.10;0.10;;;;;;;14.34;91.17;98491.91;5093402;28;20050;-63
2021/07/06 00:03:41;;;;;;;0.10;0.10;;;;;;;15.83;88.59;98494.31;5092938;28;20028;-63
2021/07/06 00:06:07;;;;;;;0.30;0.30;;;;;;;17.24;84.87;98497.22;5093600;28;20032;-61
2021/07/06 00:08:33;;;;;;;0.45;0.45;;;;;;;18.47;81.28;98496.22;5092976;28;20039;-61
2021/07/06 00:10:59;;;;;;;0.10;0.10;;;;;;;19.10;80.16;98488.84;5092912;28;20036;-62
2021/07/06 00:13:24;;;;;;;0.10;0.10;;;;;;;18.77;80.84;98491.47;5092758;28;20054;-63
2021/07/06 00:15:50;;;;;;;0.13;0.13;;;;;;;18.09;82.51;98498.84;5094098;28;20032;-62
2021/07/06 00:18:16;;;;;;;0.10;0.10;;;;;;;17.26;83.63;98497.78;5074926;28;20486;-63
2021/07/06 00:20:42;;;;;;;0.10;0.10;;;;;;;16.86;84.95;98503.22;5092886;28;20165;-63
2021/07/06 00:23:08;;;;;;;0.30;0.30;;;;;;;17.58;86.12;98494.50;5092915;28;20036;-63
2021/07/06 00:25:33;;;;;;;0.10;0.10;;;;;;;18.59;84.84;98506.13;5092735;28;20122;-64
2021/07/06 00:28:00;;;;;;;0.10;0.10;;;;;;;19.75;82.52;98490.09;5092882;28;20024;-63
2021/07/06 00:30:26;;;;;;;0.10;0.10;;;;;;;20.69;79.78;98499.34;5093126;28;20039;-63
2021/07/06 00:32:52;;;;;;;0.10;0.10;;;;;;;21.29;78.07;98498.38;5074237;28;20495;-63
2021/07/06 00:35:19;;;;;;;0.10;0.10;;;;;;;22.00;76.26;98509.00;5092577;28;20024;-63
2021/07/06 00:37:45;;;;;;;0.13;0.13;;;;;;;21.88;75.85;98506.78;5093139;28;20028;-64
2021/07/06 00:40:12;;;;;;;4.95;0.90;;;;;;;21.67;76.16;98511.22;5092921;28;20446;-62
2021/07/06 00:42:42;;;;;;;0.28;0.28;;;;;;;22.07;75.82;98505.78;5093027;28;20477;-63
2021/07/06 00:45:09;;;;;;;0.10;0.10;;;;;;;21.98;76.80;98514.13;5092877;28;20430;-61
2021/07/06 00:47:37;;;;;;;0.13;0.13;;;;;;;22.53;76.42;98512.97;5108297;28;20028;-62
2021/07/06 00:50:08;;;;;;;0.10;0.10;;;;;;;23.47;75.05;98516.75;5092476;28;20028;-63
2021/07/06 00:52:34;;;;;;;0.17;0.17;;;;;;;24.36;73.73;98525.66;5093026;28;20067;-62
2021/07/06 00:55:00;;;;;;;0.10;0.10;;;;;;;24.63;72.79;98518.00;5092875;28;20469;-62
2021/07/06 00:57:30;;;;;;;0.30;0.30;;;;;;;25.46;71.32;98533.50;5092515;28;20035;-61
2021/07/06 01:00:01;;;;;;;0.25;0.25;;;;;;;25.17;71.53;98529.50;5093333;28;20374;-62
2021/07/06 01:02:27;;;;;;;0.32;0.30;;;;;;;24.67;72.38;98535.84;5092853;28;20039;-62
2021/07/06 01:04:53;;;;;;;0.35;0.22;;;;;;;24.50;72.09;98531.09;5092341;28;20033;-62
2021/07/06 01:07:21;;;;;;;1.42;1.02;;;;;;;24.40;72.04;98526.63;5092231;28;20354;-60
2021/07/06 01:09:46;;;;;;;0.28;0.20;;;;;;;25.06;71.35;98525.44;5093106;28;20039;-62
2021/07/06 01:12:13;;;;;;;0.10;0.10;;;;;;;26.45;69.05;98530.38;5074100;28;20028;-63
2021/07/06 01:14:39;;;;;;;0.10;0.10;;;;;;;27.26;67.82;98522.25;5093301;28;20028;-64
2021/07/06 01:17:06;;;;;;;0.10;0.10;;;;;;;28.19;65.37;98524.28;5096185;28;20032;-62
2021/07/06 01:19:32;;;;;;;0.10;0.10;;;;;;;29.22;62.75;98524.63;5096046;28;20028;-63
2021/07/06 01:22:05;;;;;;;0.52;0.20;;;;;;;30.22;60.46;98519.56;5096415;28;20053;-62
2021/07/06 01:24:32;;;;;;;0.20;0.20;;;;;;;30.93;59.71;98510.78;5096694;28;20024;-64
2021/07/06 01:26:58;;;;;;;0.10;0.10;;;;;;;31.26;58.81;98521.50;5096204;28;20374;-62
2021/07/06 01:29:23;;;;;;;0.10;0.10;;;;;;;31.74;57.66;98531.53;5095712;28;20096;-63
2021/07/06 01:31:52;;;;;;;0.15;0.15;;;;;;;32.22;56.17;98525.31;5095546;28;20051;-63
2021/07/06 01:34:19;;;;;;;0.28;0.20;;;;;;;32.89;55.67;98526.44;5096093;28;20028;-63
2021/07/06 01:36:45;;;;;;;0.10;0.10;;;;;;;33.34;54.28;98528.06;5096037;28;20070;-64
2021/07/06 01:39:11;;;;;;;0.10;0.10;;;;;;;33.68;53.49;98541.28;5095893;28;20039;-62
2021/07/06 01:41:43;;;;;;;0.00;0.00;;;;;;;34.19;53.32;98536.72;5077791;28;20397;-64
2021/07/06 01:44:23;;;;;;;0.10;0.10;;;;;;;34.52;52.92;98538.47;5095438;28;20116;-63
2021/07/06 01:46:49;;;;;;;0.05;0.05;;;;;;;34.22;52.54;98547.31;5095507;28;20409;-63
2021/07/06 01:49:16;;;;;;;0.13;0.13;;;;;;;34.07;52.99;98546.44;5095546;28;20115;-64
2021/07/06 01:51:43;;;;;;;0.10;0.10;;;;;;;34.41;52.58;98543.34;5095785;28;20024;-63
2021/07/06 01:54:10;;;;;;;0.25;0.25;;;;;;;35.10;51.65;98549.97;5077187;28;20056;-64
2021/07/06 01:56:40;;;;;;;0.10;0.10;;;;;;;35.59;50.75;98547.53;5077443;28;20039;-63
2021/07/06 01:59:06;;;;;;;0.13;0.13;;;;;;;35.85;50.17;98557.72;5095592;28;20043;-63
2021/07/06 02:01:33;;;;;;;0.10;0.10;;;;;;;35.96;49.62;98547.06;5095409;28;20032;-63
2021/07/06 02:04:00;;;;;;;0.10;0.10;;;;;;;36.12;49.11;98558.03;5095791;28;20032;-63
2021/07/06 02:06:26;;;;;;;0.10;0.10;;;;;;;36.58;49.04;98556.22;5095300;28;20036;-63
2021/07/06 02:08:52;;;;;;;0.10;0.10;;;;;;;36.11;50.63;98564.16;5095285;28;20043;-63
2021/07/06 02:11:17;;;;;;;0.10;0.10;;;;;;;35.11;52.40;98563.03;5095087;28;20036;-62
2021/07/06 02:13:43;;;;;;;0.10;0.10;;;;;;;35.54;51.36;98557.34;5077889;28;20036;-63
2021/07/06 02:16:10;;;;;;;0.10;0.10;;;;;;;36.28;49.06;98566.16;5095640;28;20552;-65
2021/07/06 02:18:36;;;;;;;0.10;0.10;;;;;;;36.86;48.28;98565.88;5094896;28;20020;-62
2021/07/06 02:21:02;;;;;;;0.10;0.10;;;;;;;36.91;49.26;98567.47;5094923;28;20525;-62
2021/07/06 02:23:30;;;;;;;0.10;0.10;;;;;;;37.02;49.37;98555.97;5094988;28;20028;-62
2021/07/06 02:26:01;;;;;;;0.20;0.17;;;;;;;37.14;49.15;98552.59;5095097;28;20039;-63
2021/07/06 02:28:27;;;;;;;0.10;0.10;;;;;;;37.34;48.51;98562.28;5094751;28;20032;-63
2021/07/06 02:30:53;;;;;;;0.10;0.10;;;;;;;37.47;47.69;98559.72;5095072;28;20497;-63
2021/07/06 02:33:19;;;;;;;0.32;0.32;;;;;;;37.74;47.45;98549.63;5094502;28;20116;-63
2021/07/06 02:35:47;;;;;;;0.10;0.10;;;;;;;38.16;47.54;98554.09;5095171;28;20115;-63
2021/07/06 02:38:13;;;;;;;0.10;0.10;;;;;;;38.58;46.86;98548.22;5092796;28;20032;-64
2021/07/06 02:40:40;;;;;;;0.10;0.10;;;;;;;38.94;46.92;98552.66;5093194;28;20409;-60
2021/07/06 02:43:06;;;;;;;0.10;0.10;;;;;;;39.35;46.63;98561.00;5094102;28;20032;-63
2021/07/06 02:45:32;;;;;;;0.10;0.10;;;;;;;39.60;46.26;98568.41;5094104;28;20028;-61
2021/07/06 02:47:59;;;;;;;0.30;0.30;;;;;;;39.62;46.25;98550.75;5076443;28;20063;-63
2021/07/06 02:50:26;;;;;;;0.10;0.10;;;;;;;39.73;46.17;98554.22;5094266;28;20025;-62
2021/07/06 02:52:52;;;;;;;0.10;0.10;;;;;;;39.80;45.72;98565.59;5094329;28;20032;-66
2021/07/06 02:55:18;;;;;;;0.57;0.57;;;;;;;40.01;45.77;98564.38;5076041;28;20085;-64
2021/07/06 02:57:45;;;;;;;0.10;0.10;;;;;;;40.38;45.95;98567.34;5093900;28;20123;-61
2021/07/06 03:00:23;;;;;;;0.20;0.20;;;;;;;41.02;45.03;98562.25;5093985;28;20035;-62
2021/07/06 03:02:54;;;;;;;0.57;0.20;;;;;;;41.56;44.16;98557.22;5094139;28;20032;-61
2021/07/06 03:05:23;;;;;;;0.10;0.10;;;;;;;41.71;44.17;98558.44;5076449;28;20024;-61
2021/07/06 03:07:49;;;;;;;0.57;0.30;;;;;;;41.57;44.42;98559.63;5094257;28;20436;-60
2021/07/06 03:10:18;;;;;;;0.20;0.20;;;;;;;39.69;47.58;98559.22;5094532;28;20024;-60
2021/07/06 03:12:45;;;;;;;0.10;0.10;;;;;;;39.04;48.58;98563.97;5094221;28;20044;-62
2021/07/06 03:15:13;;;;;;;0.10;0.10;;;;;;;39.87;47.33;98564.63;5094989;28;20034;-65
2021/07/06 03:17:39;;;;;;;0.10;0.10;;;;;;;40.90;45.67;98571.56;5075746;28;20501;-64
2021/07/06 03:20:07;;;;;;;0.10;0.10;;;;;;;41.44;45.46;98561.63;5093994;28;20024;-62
2021/07/06 03:22:33;;;;;;;0.10;0.10;;;;;;;42.10;44.45;98576.75;5094370;28;20040;-62
2021/07/06 03:24:59;;;;;;;0.10;0.10;;;;;;;42.57;44.06;98581.16;5092593;28;20031;-64
2021/07/06 03:27:25;;;;;;;0.40;0.40;;;;;;;42.94;43.45;98570.13;5093421;28;20039;-59
2021/07/06 03:29:51;;;;;;;0.25;0.25;;;;;;;43.16;43.36;98570.28;5093599;28;20059;-59
2021/07/06 03:32:18;;;;;;;1.95;0.30;;;;;;;43.53;42.70;98576.47;5093327;28;20051;-61
2021/07/06 03:34:45;;;;;;;0.10;0.10;;;;;;;43.66;42.48;98564.09;5093697;28;20567;-59
2021/07/06 03:37:10;;;;;;;0.55;0.45;;;;;;;43.78;42.17;98574.78;5092804;28;20024;-60
2021/07/06 03:39:37;;;;;;;0.10;0.10;;;;;;;43.83;42.18;98571.31;5093844;28;20485;-59
2021/07/06 03:42:05;;;;;;;0.10;0.10;;;;;;;43.91;42.41;98566.91;5093703;28;20511;-60
2021/07/06 03:44:31;;;;;;;0.10;0.10;;;;;;;44.00;41.89;98574.84;5093233;28;20036;-60
2021/07/06 03:46:57;;;;;;;0.10;0.10;;;;;;;44.26;41.58;98574.75;5093206;28;20050;-60
2021/07/06 03:49:23;;;;;;;0.40;0.40;;;;;;;44.56;40.49;98584.75;5093205;28;20044;-64
2021/07/06 03:51:49;;;;;;;0.10;0.10;;;;;;;44.78;40.14;98586.84;5092770;28;20043;-59
2021/07/06 03:54:15;;;;;;;0.10;0.10;;;;;;;44.93;40.05;98581.28;5075406;28;20081;-60
2021/07/06 03:56:41;;;;;;;0.10;0.10;;;;;;;45.05;39.17;98579.59;5093326;28;20028;-60
2021/07/06 03:59:07;;;;;;;0.10;0.10;;;;;;;45.16;38.60;98588.66;5093353;28;20082;-63
2021/07/06 04:01:36;;;;;;;0.10;0.10;;;;;;;45.00;38.64;98574.38;5093033;28;20392;-60
2021/07/06 04:04:02;;;;;;;0.52;0.20;;;;;;;44.83;39.06;98583.31;5108641;28;20032;-61
2021/07/06 04:06:28;;;;;;;0.10;0.10;;;;;;;44.85;38.47;98594.44;5074727;28;20027;-59
2021/07/06 04:08:54;;;;;;;0.52;0.50;;;;;;;44.79;38.48;98583.47;5092671;28;20043;-61
2021/07/06 04:11:20;;;;;;;0.45;0.20;;;;;;;44.91;37.91;98590.44;5092695;28;20030;-63
2021/07/06 04:13:46;;;;;;;0.10;0.10;;;;;;;45.08;37.52;98587.31;5074145;28;20473;-61
2021/07/06 04:16:11;;;;;;;0.20;0.20;;;;;;;45.20;37.19;98580.59;5093560;28;20024;-61
2021/07/06 04:18:37;;;;;;;0.30;0.30;;;;;;;45.35;36.47;98588.69;5074292;28;20028;-64
2021/07/06 04:21:06;;;;;;;0.10;0.10;;;;;;;45.49;36.04;98588.13;5092728;28;20097;-59
2021/07/06 04:23:33;;;;;;;0.20;0.20;;;;;;;44.91;36.80;98592.53;5092756;28;20036;-63
2021/07/06 04:25:59;;;;;;;0.10;0.10;;;;;;;44.67;36.98;98593.03;5092655;28;20055;-60
2021/07/06 04:28:25;;;;;;;0.10;0.10;;;;;;;44.61;36.50;98589.94;5092824;28;20067;-63
2021/07/06 04:30:50;;;;;;;0.10;0.10;;;;;;;44.49;35.99;98592.91;5076347;28;20027;-64
2021/07/06 04:33:16;;;;;;;0.10;0.10;;;;;;;44.64;35.81;98588.22;5110193;28;20097;-65
2021/07/06 04:35:49;;;;;;;0.15;0.15;;;;;;;44.76;35.12;98580.72;5111027;28;20023;-63
2021/07/06 04:38:15;;;;;;;0.30;0.30;;;;;;;44.49;35.29;98585.03;5110845;28;20539;-64
2021/07/06 04:40:41;;;;;;;0.10;0.10;;;;;;;44.56;34.89;98586.84;5111019;28;20027;-63
2021/07/06 04:43:07;;;;;;;0.30;0.30;;;;;;;44.22;35.22;98582.75;5107839;28;20031;-65
2021/07/06 04:45:36;;;;;;;0.15;0.15;;;;;;;43.25;36.48;98584.03;5111324;28;20019;-65
2021/07/06 04:48:03;;;;;;;0.10;0.10;;;;;;;42.33;37.28;98587.25;5111257;28;21435;-64
2021/07/06 04:50:31;;;;;;;0.10;0.10;;;;;;;41.89;37.80;98571.56;5094931;28;20020;-63
2021/07/06 04:52:57;;;;;;;0.10;0.10;;;;;;;42.23;36.92;98579.72;5114458;28;20035;-67
2021/07/06 04:55:23;;;;;;;0.32;0.32;;;;;;;42.67;35.88;98579.22;5115217;28;20080;-63
2021/07/06 04:57:49;;;;;;;0.10;0.10;;;;;;;42.51;35.61;98583.81;5112694;28;20430;-63
2021/07/06 05:00:17;;;;;;;0.10;0.10;;;;;;;42.09;35.52;98588.72;5115311;28;20023;-62
2021/07/06 05:02:45;;;;;;;0.10;0.10;;;;;;;41.64;35.94;98590.31;5115010;28;20042;-62
2021/07/06 05:05:12;;;;;;;0.10;0.10;;;;;;;41.70;35.26;98579.88;5112233;28;20077;-65
2021/07/06 05:07:39;;;;;;;0.95;0.20;;;;;;;41.31;35.43;98591.13;5112211;28;20086;-61
2021/07/06 05:10:07;;;;;;;0.10;0.10;;;;;;;41.13;35.17;98582.94;5114887;28;21474;-63
2021/07/06 05:12:33;;;;;;;0.20;0.20;;;;;;;41.33;34.80;98587.84;5112649;28;20035;-64
2021/07/06 05:14:59;;;;;;;0.20;0.20;;;;;;;41.61;34.17;98585.47;5113930;28;20507;-64
2021/07/06 05:17:25;;;;;;;0.10;0.10;;;;;;;42.10;33.29;98590.38;5114985;28;20034;-62
2021/07/06 05:19:51;;;;;;;0.10;0.10;;;;;;;42.23;32.58;98597.00;5112145;28;20019;-63
2021/07/06 05:22:17;;;;;;;0.10;0.10;;;;;;;42.46;32.15;98598.78;5115079;28;20114;-64
2021/07/06 05:24:43;;;;;;;0.10;0.10;;;;;;;42.46;31.83;98595.09;5114683;28;20088;-63
2021/07/06 05:27:08;;;;;;;0.10;0.10;;;;;;;42.26;32.11;98601.03;5114628;28;20028;-62
2021/07/06 05:29:34;;;;;;;0.10;0.10;;;;;;;41.82;32.53;98607.19;5114618;28;20020;-64
2021/07/06 05:32:01;;;;;;;0.10;0.10;;;;;;;39.82;35.17;98600.44;5095950;28;20042;-63
2021/07/06 05:34:27;;;;;;;0.10;0.10;;;;;;;37.52;38.16;98607.91;5095222;28;20032;-62
2021/07/06 05:36:53;;;;;;;0.15;0.15;;;;;;;37.18;38.21;98604.91;5111181;28;20027;-62
2021/07/06 05:39:19;;;;;;;0.20;0.20;;;;;;;38.46;35.37;98607.00;5114569;28;20058;-63
2021/07/06 05:41:46;;;;;;;0.10;0.10;;;;;;;39.18;33.93;98600.28;5112915;28;20027;-63
2021/07/06 05:44:13;;;;;;;0.10;0.10;;;;;;;39.56;32.97;98607.88;5113751;28;20062;-63
2021/07/06 05:46:40;;;;;;;0.10;0.10;;;;;;;39.74;32.61;98614.13;5114838;28;20027;-64
2021/07/06 05:49:06;;;;;;;0.10;0.10;;;;;;;40.35;31.70;98612.16;5114901;28;20035;-62
2021/07/06 05:51:32;;;;;;;0.10;0.10;;;;;;;40.97;30.58;98615.38;5114216;28;20051;-64
2021/07/06 05:53:58;;;;;;;0.10;0.10;;;;;;;41.65;29.42;98612.13;5114317;28;20489;-63
2021/07/06 05:56:24;;;;;;;0.10;0.10;;;;;;;41.32;29.96;98615.03;5114069;28;20039;-63
2021/07/06 05:58:50;;;;;;;0.10;0.10;;;;;;;40.18;31.30;98624.84;5113898;28;20034;-63
2021/07/06 06:01:16;;;;;;;0.10;0.10;;;;;;;37.46;34.82;98620.28;5095010;28;20114;-62
2021/07/06 06:03:43;;;;;;;0.32;0.22;;;;;;;34.51;38.79;98615.81;5114127;28;20038;-62
2021/07/06 06:06:09;;;;;;;0.03;0.03;;;;;;;32.86;40.79;98615.38;5113919;28;20032;-66
2021/07/06 06:08:36;;;;;;;0.35;0.30;;;;;;;31.38;42.35;98619.75;5113870;28;20039;-64
2021/07/06 06:11:06;;;;;;;0.05;0.05;;;;;;;30.14;43.14;98605.56;5113913;28;20031;-64
2021/07/06 06:13:32;;;;;;;0.00;0.00;;;;;;;29.39;43.38;98615.91;5112577;28;20071;-64
2021/07/06 06:15:58;;;;;;;0.00;0.00;;;;;;;28.55;43.77;98620.50;5095621;28;20115;-63
2021/07/06 06:18:24;;;;;;;0.32;0.10;;;;;;;27.76;44.09;98628.22;5113565;28;20515;-65
2021/07/06 06:20:50;;;;;;;0.08;0.08;;;;;;;26.67;45.09;98631.34;5095396;28;20405;-62
2021/07/06 06:23:16;;;;;;;0.00;0.00;;;;;;;26.06;45.53;98629.06;5113985;28;20493;-63
2021/07/06 06:25:42;;;;;;;0.20;0.20;;;;;;;25.80;44.96;98615.94;5111131;28;20488;-65
2021/07/06 06:28:08;;;;;;;0.05;0.05;;;;;;;25.65;44.37;98623.00;5111989;28;20066;-64
2021/07/06 06:30:34;;;;;;;0.20;0.20;;;;;;;25.13;44.16;98626.88;5113370;28;20055;-65
2021/07/06 06:33:00;;;;;;;0.10;0.10;;;;;;;24.36;45.08;98621.06;5113253;28;20082;-63
2021/07/06 06:35:26;;;;;;;0.00;0.00;;;;;;;23.85;45.14;98629.09;5094814;28;20047;-64
2021/07/06 06:37:52;;;;;;;0.00;0.00;;;;;;;23.57;44.90;98629.38;5113081;28;20074;-63
2021/07/06 06:40:18;;;;;;;0.00;0.00;;;;;;;23.36;44.76;98623.53;5113366;28;20027;-64
2021/07/06 06:42:45;;;;;;;0.10;0.10;;;;;;;23.24;44.33;98612.94;5113278;28;20088;-65
2021/07/06 06:45:12;;;;;;;0.10;0.10;;;;;;;23.34;43.54;98622.22;5110524;28;20392;-66
2021/07/06 06:47:38;;;;;;;0.10;0.10;;;;;;;23.56;42.60;98619.31;5110608;28;20652;-65
2021/07/06 06:50:06;;;;;;;0.03;0.03;;;;;;;23.93;41.68;98610.66;5094684;28;20028;-66
2021/07/06 06:52:32;;;;;;;0.00;0.00;;;;;;;24.18;40.86;98613.81;5112729;28;20043;-63
2021/07/06 06:54:58;;;;;;;0.03;0.03;;;;;;;24.13;40.55;98624.03;5110132;28;20035;-65
2021/07/06 06:57:24;;;;;;;0.10;0.10;;;;;;;23.70;40.77;98605.16;5112206;28;20043;-64
2021/07/06 06:59:50;;;;;;;0.10;0.10;;;;;;;23.21;41.62;98616.38;5112695;28;20034;-65
2021/07/06 07:02:17;;;;;;;0.00;0.00;;;;;;;22.90;41.81;98608.81;5112676;28;20407;-64
2021/07/06 07:04:49;;;;;;;0.10;0.10;;;;;;;22.72;41.67;98604.28;5112942;28;20035;-65
2021/07/06 07:07:16;;;;;;;0.10;0.10;;;;;;;22.69;41.55;98607.72;5112540;28;20028;-64
2021/07/06 07:09:41;;;;;;;0.10;0.10;;;;;;;22.77;41.31;98606.94;5094308;28;20031;-63
2021/07/06 07:12:08;;;;;;;0.10;0.10;;;;;;;22.96;40.71;98600.28;5059445;28;20015;-62
2021/07/06 07:14:34;;;;;;;0.00;0.00;;;;;;;23.25;39.93;98599.78;5112635;28;20035;-67
2021/07/06 07:17:00;;;;;;;0.03;0.03;;;;;;;23.30;39.91;98601.59;5093943;28;20023;-62
2021/07/06 07:19:26;;;;;;;0.10;0.10;;;;;;;23.05;40.01;98596.34;5112656;28;20032;-64
2021/07/06 07:21:52;;;;;;;0.00;0.00;;;;;;;23.16;39.78;98605.34;5092000;28;20107;-63
2021/07/06 07:24:18;;;;;;;0.00;0.00;;;;;;;23.32;39.13;98599.28;5092679;28;20076;-65
2021/07/06 07:26:44;;;;;;;0.50;0.50;;;;;;;23.07;39.68;98602.47;5111605;28;20097;-63
2021/07/06 07:29:09;;;;;;;0.10;0.10;;;;;;;22.91;39.91;98607.69;5093436;28;20028;-63
2021/07/06 07:31:35;;;;;;;0.10;0.10;;;;;;;22.80;39.82;98600.69;5111189;28;20027;-62
2021/07/06 07:34:03;;;;;;;0.10;0.10;;;;;;;22.72;39.93;98595.88;5111540;28;20404;-64
2021/07/06 07:36:29;;;;;;;0.00;0.00;;;;;;;22.60;40.13;98590.88;5110911;28;20055;-65
2021/07/06 07:38:56;;;;;;;0.10;0.10;;;;;;;22.56;40.03;98584.28;5111210;28;20104;-62
2021/07/06 07:41:22;;;;;;;0.00;0.00;;;;;;;22.61;39.74;98586.09;5111019;28;20470;-63
2021/07/06 07:43:57;;;;;;;0.10;0.10;;;;;;;22.78;39.24;98597.41;5110622;28;20453;-63
2021/07/06 07:46:25;;;;;;;0.10;0.10;;;;;;;22.85;39.31;98591.31;5110805;28;20043;-64
2021/07/06 07:48:50;;;;;;;0.10;0.10;;;;;;;22.91;38.69;98590.06;5110982;28;20034;-64
2021/07/06 07:51:17;;;;;;;0.05;0.05;;;;;;;22.96;38.91;98594.69;5113185;27;20023;-63
2021/07/06 07:53:44;;;;;;;0.00;0.00;;;;;;;23.11;38.76;98579.47;5118763;27;20081;-63
2021/07/06 07:56:11;;;;;;;0.10;0.10;;;;;;;23.32;38.03;98577.72;5102791;27;20027;-62
2021/07/06 07:58:37;;;;;;;0.10;0.10;;;;;;;23.29;38.36;98586.75;5103680;27;20112;-64
2021/07/06 08:01:03;;;;;;;0.00;0.00;;;;;;;23.26;38.39;98563.03;5084842;28;20501;-62
2021/07/06 08:03:29;;;;;;;0.17;0.17;;;;;;;23.19;38.48;98587.06;5111679;28;20038;-62
2021/07/06 08:05:57;;;;;;;0.10;0.10;;;;;;;22.93;38.62;98576.56;5111752;28;20392;-64
2021/07/06 08:08:23;;;;;;;0.08;0.08;;;;;;;22.62;39.11;98587.75;5111253;28;20697;-63
2021/07/06 08:10:52;;;;;;;0.10;0.10;;;;;;;22.38;39.52;98575.75;5111556;28;20124;-64
2021/07/06 08:13:27;;;;;;;0.10;0.10;;;;;;;22.32;39.33;98574.25;5111774;28;20035;-65
2021/07/06 08:15:53;;;;;;;;;;;;;;;22.31;39.42;98583.75;5111093;28;20024;-63
2021/07/06 08:18:19;;;;;;;0.10;0.10;;;;;;;22.33;39.50;98575.88;5111072;28;19970;-63
2021/07/06 08:20:47;;;;;;;0.10;0.10;;;;;;;22.51;39.30;98576.00;5093263;28;20028;-64
2021/07/06 08:23:13;;;;;;;0.10;0.10;;;;;;;22.64;38.83;98579.88;5108946;28;20044;-64
2021/07/06 08:25:39;;;;;;;0.20;0.20;;;;;;;22.49;39.17;98569.91;5111233;28;20016;-63
2021/07/06 08:28:05;;;;;;;0.40;0.35;;;;;;;22.16;39.55;98581.34;5111284;28;20028;-63
2021/07/06 08:30:31;;;;;;;0.10;0.10;;;;;;;21.74;40.14;98569.47;5111299;28;20019;-63
2021/07/06 08:32:57;;;;;;;0.10;0.10;;;;;;;21.46;40.36;98572.28;5111135;28;20043;-63
2021/07/06 08:35:25;;;;;;;0.00;0.00;;;;;;;21.29;40.86;98570.13;5111313;28;20051;-63
2021/07/06 08:37:52;;;;;;;0.10;0.10;;;;;;;21.25;40.73;98558.78;5077004;28;20445;-63
2021/07/06 08:40:19;;;;;;;0.10;0.10;;;;;;;21.20;40.75;98570.06;5093060;28;20411;-65
2021/07/06 08:42:47;;;;;;;0.10;0.10;;;;;;;21.21;40.35;98571.69;5110975;28;20031;-63
2021/07/06 08:45:13;;;;;;;0.00;0.00;;;;;;;21.27;40.10;98567.66;5107893;28;20035;-64
2021/07/06 08:47:45;;;;;;;0.10;0.10;;;;;;;21.58;39.53;98560.59;5107794;28;20042;-64
2021/07/06 08:50:12;;;;;;;0.20;0.20;;;;;;;22.02;38.96;98556.22;5093768;28;20036;-64
2021/07/06 08:52:42;;;;;;;0.52;0.52;;;;;;;22.32;38.19;98557.47;5110897;28;20035;-63
2021/07/06 08:55:08;;;;;;;0.10;0.10;;;;;;;22.42;38.14;98561.13;5108725;28;20066;-67
2021/07/06 08:57:38;;;;;;;0.10;0.10;;;;;;;22.24;38.63;98563.78;5110654;28;20501;-63
2021/07/06 09:00:06;;;;;;;0.10;0.10;;;;;;;22.03;39.20;98560.69;5111147;28;20076;-63
2021/07/06 09:02:32;;;;;;;0.17;0.17;;;;;;;21.87;39.23;98574.19;5092907;28;20054;-64
2021/07/06 09:05:00;;;;;;;0.22;0.22;;;;;;;21.75;39.34;98577.53;5111168;28;20019;-61
2021/07/06 09:07:41;;;;;;;0.10;0.10;;;;;;;21.53;39.83;98575.53;5111238;28;20023;-62
2021/07/06 09:10:15;;;;;;;0.10;0.10;;;;;;;21.30;40.26;98572.63;5092006;28;20031;-65
2021/07/06 09:12:41;;;;;;;0.20;0.20;;;;;;;21.07;40.62;98579.25;5109267;28;20110;-65
2021/07/06 09:15:26;;;;;;;0.20;0.10;;;;;;;20.94;40.75;98570.56;5111314;28;20473;-63
2021/07/06 09:18:16;;;;;;;0.15;0.15;;;;;;;20.95;40.60;98563.00;5109969;28;20081;-63
2021/07/06 09:20:57;;;;;;;0.10;0.10;;;;;;;21.12;40.29;98566.00;5108874;28;20486;-62
2021/07/06 09:23:31;;;;;;;0.10;0.10;;;;;;;21.39;39.74;98557.94;5108988;28;20039;-62
2021/07/06 09:26:16;;;;;;;0.10;0.10;;;;;;;21.67;38.95;98559.56;5108127;28;20031;-62
2021/07/06 09:28:44;;;;;;;0.73;0.35;;;;;;;21.96;38.57;98561.09;5108671;28;20031;-65
2021/07/06 09:31:37;;;;;;;0.30;0.30;;;;;;;22.31;38.26;98561.38;5110568;28;20080;-63
2021/07/06 09:34:08;;;;;;;0.10;0.10;;;;;;;22.50;37.72;98552.78;4988750;28;20251;-62
2021/07/06 09:36:43;;;;;;;0.10;0.10;;;;;;;22.31;38.46;98554.97;4974545;28;20042;-66
2021/07/06 09:39:24;;;;;;;1.45;0.75;;;;;;;21.92;38.77;98548.09;4992643;28;20072;-64
2021/07/06 09:42:00;;;;;;;0.10;0.10;;;;;;;21.45;39.85;98546.34;4975839;28;20030;-62
2021/07/06 09:44:36;;;;;;;0.20;0.20;;;;;;;21.18;40.42;98558.34;4990971;28;20587;-66
2021/07/06 09:47:09;;;;;;;0.10;0.10;;;;;;;21.02;40.90;98560.63;4978134;28;20045;-62
2021/07/06 09:49:38;;;;;;;0.10;0.10;;;;;;;21.17;40.32;98553.91;4977851;28;20467;-61
2021/07/06 09:52:19;;;;;;;0.10;0.10;;;;;;;21.42;39.67;98552.56;4978015;28;20039;-62
2021/07/06 09:54:50;;;;;;;0.10;0.10;;;;;;;21.42;39.88;98548.91;4994039;28;20130;-62
2021/07/06 09:57:31;;;;;;;0.03;0.03;;;;;;;21.37;39.99;98568.59;4994185;28;20164;-60
2021/07/06 09:59:56;;;;;;;0.10;0.10;;;;;;;21.28;40.00;98563.72;4993509;28;20042;-63
2021/07/06 10:02:23;;;;;;;1.13;0.47;;;;;;;21.25;40.00;98564.34;4993910;28;20034;-65
2021/07/06 10:04:54;;;;;;;0.10;0.10;;;;;;;21.19;40.00;98562.81;4994844;28;20050;-62
2021/07/06 10:07:21;;;;;;;0.17;0.10;;;;;;;21.20;39.94;98555.25;4993567;28;20034;-63
2021/07/06 10:09:52;;;;;;;0.20;0.20;;;;;;;21.45;39.81;98553.88;4994694;28;20069;-62
2021/07/06 10:12:20;;;;;;;0.10;0.10;;;;;;;21.76;39.30;98553.22;5095443;28;20032;-62
2021/07/06 10:14:47;;;;;;;0.82;0.50;;;;;;;22.25;38.44;98550.66;5095303;28;20032;-63
2021/07/06 10:17:13;;;;;;;0.10;0.10;;;;;;;22.63;37.95;98547.41;5095560;28;20066;-61
2021/07/06 10:19:41;;;;;;;0.10;0.10;;;;;;;22.86;37.52;98551.00;5094954;28;20400;-62
2021/07/06 10:22:07;;;;;;;0.13;0.13;;;;;;;22.82;37.59;98538.78;5095262;28;20516;-62
2021/07/06 10:24:38;;;;;;;0.25;0.25;;;;;;;22.78;37.99;98530.22;5095108;28;20047;-65
2021/07/06 10:27:07;;;;;;;0.10;0.10;;;;;;;22.63;38.38;98548.28;5094706;28;20439;-63
2021/07/06 10:29:36;;;;;;;0.10;0.10;;;;;;;22.51;38.43;98548.88;5094697;28;20028;-62
2021/07/06 10:32:03;;;;;;;0.10;0.10;;;;;;;22.30;38.58;98565.31;5094853;28;20048;-64
2021/07/06 10:34:30;;;;;;;0.10;0.10;;;;;;;21.94;39.57;98565.38;5094292;28;20032;-64
2021/07/06 10:37:02;;;;;;;0.05;0.03;;;;;;;21.59;40.14;98557.50;5094525;28;20028;-63
2021/07/06 10:39:45;;;;;;;0.03;0.03;;;;;;;21.29;40.62;98565.38;5094491;28;20405;-65
2021/07/06 10:42:11;;;;;;;0.70;0.40;;;;;;;20.93;40.99;98568.91;5094595;28;20059;-63
2021/07/06 10:44:39;;;;;;;0.10;0.10;;;;;;;20.62;41.51;98563.06;5094548;28;20032;-62
2021/07/06 10:47:37;;;;;;;0.17;0.17;;;;;;;20.54;41.78;98556.22;5094338;28;20039;-62
2021/07/06 10:50:23;;;;;;;0.10;0.10;;;;;;;20.68;41.12;98547.91;5093971;28;20040;-62
2021/07/06 10:53:19;;;;;;;0.10;0.10;;;;;;;20.96;40.52;98548.75;5093574;28;20553;-62
2021/07/06 10:55:58;;;;;;;0.10;0.10;;;;;;;21.39;39.71;98547.56;5076087;28;20039;-67
2021/07/06 10:58:46;;;;;;;0.20;0.20;;;;;;;22.03;38.67;98543.91;5093023;28;20032;-65
2021/07/06 11:01:37;;;;;;;0.10;0.10;;;;;;;22.54;37.86;98536.19;5076013;28;20032;-62
2021/07/06 11:04:04;;;;;;;0.10;0.10;;;;;;;22.65;37.75;98547.94;5094999;28;20032;-63
2021/07/06 11:06:56;;;;;;;0.15;0.15;;;;;;;22.45;38.26;98546.50;5094669;28;20036;-62
2021/07/06 11:09:25;;;;;;;0.15;0.10;;;;;;;22.17;39.07;98544.66;5089922;28;20051;-62
2021/07/06 11:11:51;;;;;;;0.30;0.30;;;;;;;21.83;39.45;98543.28;5094170;28;20039;-68
2021/07/06 11:14:19;;;;;;;0.10;0.10;;;;;;;21.50;39.82;98549.03;5094044;28;20039;-65
2021/07/06 11:17:02;;;;;;;0.20;0.20;;;;;;;21.25;40.76;98553.19;5093590;28;20405;-66
2021/07/06 11:19:36;;;;;;;0.10;0.10;;;;;;;21.00;40.90;98546.19;5093733;28;20493;-64
2021/07/06 11:22:16;;;;;;;0.25;0.25;;;;;;;20.70;41.41;98540.06;5081475;28;20023;-62
2021/07/06 11:24:47;;;;;;;0.10;0.10;;;;;;;20.57;41.54;98546.44;5113892;28;20040;-63
2021/07/06 11:27:56;;;;;;;0.10;0.10;;;;;;;20.63;41.24;98536.84;5114030;28;20050;-63
2021/07/06 11:30:39;;;;;;;0.10;0.10;;;;;;;21.00;40.48;98535.81;5114402;28;20515;-62
2021/07/06 11:33:09;;;;;;;0.10;0.10;;;;;;;21.37;39.87;98537.88;5078554;28;20108;-63
2021/07/06 11:35:59;;;;;;;0.17;0.17;;;;;;;21.70;39.10;98531.00;5096035;28;20488;-62
2021/07/06 11:38:26;;;;;;;2.13;1.08;;;;;;;22.02;38.61;98542.25;5114159;28;20040;-66
2021/07/06 11:41:02;;;;;;;0.10;0.10;;;;;;;22.09;38.40;98527.84;5113873;28;20047;-63